KSOP

Moore County Airport

Pinehurst/Southern Pines, North Carolina, USA
METAR KSOP 182156Z AUTO 23006KT 10SM FEW042 SCT110 30/24 A2992 RMK AO2 SLP139 T03000244
Observed Flight Rules
Aug-18 @ 21:56 UTC (2 hours ago) Visual Flight Rules
Wind Visibility Clouds
230° at 6 knots 10 miles
  • Few at 4,200' AGL
  • Scattered at 11,000' AGL
Temperatures Readings
Current 30°C / 86°F
Dewpoint 24°C / 75°F
Humidity 70%
Altimeter 29.92" Hg
Pressure 1013.9 hPa
Elevation 141
METAR KSOP 182156Z AUTO 23006KT 10SM FEW042 SCT110 30/24 A2992 RMK AO2 SLP139 T03000244
Observed Flight Rules
Aug-18 @ 21:56 UTC
(2 hours ago)
VFR
Wind Visibility
230° at 6 knots 10 miles
Clouds
  • Few at 4,200' AGL
  • Scattered at 11,000' AGL
Temperature Dewpoint
30°C / 86°F 24°C / 75°F
Humidity Altimeter Pressure
70% 29.92" Hg 1013.9 hPa